sensor_id;sensor_type;location;lat;lon;timestamp;P1;durP1;ratioP1;P2;durP2;ratioP2
75465;SDS011;64049;46.290;44.240;2023-05-20T00:01:00;7.13;;;2.58;;
75465;SDS011;64049;46.290;44.240;2023-05-20T00:03:26;6.32;;;2.40;;
75465;SDS011;64049;46.290;44.240;2023-05-20T00:05:53;7.38;;;2.47;;
75465;SDS011;64049;46.290;44.240;2023-05-20T00:08:19;6.60;;;2.47;;
75465;SDS011;64049;46.290;44.240;2023-05-20T00:10:45;10.95;;;2.75;;
75465;SDS011;64049;46.290;44.240;2023-05-20T00:13:11;7.13;;;2.50;;
75465;SDS011;64049;46.290;44.240;2023-05-20T00:15:37;6.85;;;3.17;;
75465;SDS011;64049;46.290;44.240;2023-05-20T00:18:03;10.45;;;2.47;;
75465;SDS011;64049;46.290;44.240;2023-05-20T00:20:29;10.93;;;2.75;;
75465;SDS011;64049;46.290;44.240;2023-05-20T00:22:55;10.23;;;2.85;;
75465;SDS011;64049;46.290;44.240;2023-05-20T00:25:21;6.40;;;3.05;;
75465;SDS011;64049;46.290;44.240;2023-05-20T00:27:47;10.30;;;2.95;;
75465;SDS011;64049;46.290;44.240;2023-05-20T00:30:13;8.50;;;2.67;;
75465;SDS011;64049;46.290;44.240;2023-05-20T00:32:38;12.65;;;2.97;;
75465;SDS011;64049;46.290;44.240;2023-05-20T00:35:05;7.15;;;2.25;;
75465;SDS011;64049;46.290;44.240;2023-05-20T00:37:31;6.97;;;2.72;;
75465;SDS011;64049;46.290;44.240;2023-05-20T00:39:58;8.15;;;2.53;;
75465;SDS011;64049;46.290;44.240;2023-05-20T00:42:25;5.55;;;2.28;;
75465;SDS011;64049;46.290;44.240;2023-05-20T00:44:52;6.43;;;2.95;;
75465;SDS011;64049;46.290;44.240;2023-05-20T00:47:20;7.47;;;2.90;;
75465;SDS011;64049;46.290;44.240;2023-05-20T00:49:52;6.75;;;2.85;;
75465;SDS011;64049;46.290;44.240;2023-05-20T00:52:18;9.98;;;3.47;;
75465;SDS011;64049;46.290;44.240;2023-05-20T00:54:44;6.78;;;3.03;;
75465;SDS011;64049;46.290;44.240;2023-05-20T00:57:11;7.63;;;2.78;;
75465;SDS011;64049;46.290;44.240;2023-05-20T00:59:37;7.38;;;2.83;;
75465;SDS011;64049;46.290;44.240;2023-05-20T01:02:04;9.88;;;2.78;;
75465;SDS011;64049;46.290;44.240;2023-05-20T01:04:30;15.52;;;3.08;;
75465;SDS011;64049;46.290;44.240;2023-05-20T01:07:01;7.78;;;2.63;;
75465;SDS011;64049;46.290;44.240;2023-05-20T01:09:29;9.60;;;3.20;;
75465;SDS011;64049;46.290;44.240;2023-05-20T01:11:58;6.90;;;2.42;;
75465;SDS011;64049;46.290;44.240;2023-05-20T01:14:35;10.90;;;2.85;;
75465;SDS011;64049;46.290;44.240;2023-05-20T01:17:06;6.15;;;2.28;;
75465;SDS011;64049;46.290;44.240;2023-05-20T01:22:09;7.63;;;2.78;;
75465;SDS011;64049;46.290;44.240;2023-05-20T01:24:39;6.97;;;2.30;;
75465;SDS011;64049;46.290;44.240;2023-05-20T01:27:07;6.15;;;2.08;;
75465;SDS011;64049;46.290;44.240;2023-05-20T01:29:40;9.10;;;2.50;;
75465;SDS011;64049;46.290;44.240;2023-05-20T01:32:27;6.15;;;2.58;;
75465;SDS011;64049;46.290;44.240;2023-05-20T01:34:57;7.85;;;2.40;;
75465;SDS011;64049;46.290;44.240;2023-05-20T01:37:25;10.43;;;2.83;;
75465;SDS011;64049;46.290;44.240;2023-05-20T01:39:53;18.15;;;4.25;;
75465;SDS011;64049;46.290;44.240;2023-05-20T01:42:19;9.65;;;3.35;;
75465;SDS011;64049;46.290;44.240;2023-05-20T01:44:47;15.27;;;3.72;;
75465;SDS011;64049;46.290;44.240;2023-05-20T01:47:13;10.73;;;2.88;;
75465;SDS011;64049;46.290;44.240;2023-05-20T01:49:40;13.88;;;2.63;;
75465;SDS011;64049;46.290;44.240;2023-05-20T01:52:06;6.32;;;2.75;;
75465;SDS011;64049;46.290;44.240;2023-05-20T01:54:32;10.60;;;2.78;;
75465;SDS011;64049;46.290;44.240;2023-05-20T01:56:58;8.65;;;2.92;;
75465;SDS011;64049;46.290;44.240;2023-05-20T01:59:24;9.07;;;2.72;;
75465;SDS011;64049;46.290;44.240;2023-05-20T02:01:50;8.77;;;2.38;;
75465;SDS011;64049;46.290;44.240;2023-05-20T02:04:16;11.73;;;2.60;;
75465;SDS011;64049;46.290;44.240;2023-05-20T02:06:43;11.63;;;2.55;;
75465;SDS011;64049;46.290;44.240;2023-05-20T02:09:10;8.73;;;2.35;;
75465;SDS011;64049;46.290;44.240;2023-05-20T02:11:36;6.72;;;2.80;;
75465;SDS011;64049;46.290;44.240;2023-05-20T02:14:02;9.02;;;3.05;;
75465;SDS011;64049;46.290;44.240;2023-05-20T02:16:28;9.02;;;2.55;;
75465;SDS011;64049;46.290;44.240;2023-05-20T02:18:54;8.75;;;2.45;;
75465;SDS011;64049;46.290;44.240;2023-05-20T02:23:48;7.70;;;2.22;;
75465;SDS011;64049;46.290;44.240;2023-05-20T02:26:14;8.93;;;2.10;;
75465;SDS011;64049;46.290;44.240;2023-05-20T02:28:40;10.23;;;2.58;;
75465;SDS011;64049;46.290;44.240;2023-05-20T02:31:12;9.23;;;2.50;;
75465;SDS011;64049;46.290;44.240;2023-05-20T02:33:37;9.23;;;2.17;;
75465;SDS011;64049;46.290;44.240;2023-05-20T02:36:05;9.88;;;2.50;;
75465;SDS011;64049;46.290;44.240;2023-05-20T02:38:31;10.00;;;2.28;;
75465;SDS011;64049;46.290;44.240;2023-05-20T02:40:57;6.82;;;2.38;;
75465;SDS011;64049;46.290;44.240;2023-05-20T02:43:24;8.77;;;3.10;;
75465;SDS011;64049;46.290;44.240;2023-05-20T02:45:51;10.52;;;2.80;;
75465;SDS011;64049;46.290;44.240;2023-05-20T02:48:17;13.40;;;2.90;;
75465;SDS011;64049;46.290;44.240;2023-05-20T02:50:44;8.80;;;3.28;;
75465;SDS011;64049;46.290;44.240;2023-05-20T02:53:10;4.65;;;2.15;;
75465;SDS011;64049;46.290;44.240;2023-05-20T02:55:36;11.93;;;3.13;;
75465;SDS011;64049;46.290;44.240;2023-05-20T02:58:02;6.70;;;2.92;;
75465;SDS011;64049;46.290;44.240;2023-05-20T03:00:31;5.90;;;2.42;;
75465;SDS011;64049;46.290;44.240;2023-05-20T03:03:06;7.93;;;3.88;;
75465;SDS011;64049;46.290;44.240;2023-05-20T03:05:32;10.68;;;3.25;;
75465;SDS011;64049;46.290;44.240;2023-05-20T03:08:08;9.35;;;3.38;;
75465;SDS011;64049;46.290;44.240;2023-05-20T03:10:35;8.15;;;2.65;;
75465;SDS011;64049;46.290;44.240;2023-05-20T03:13:04;8.05;;;3.10;;
75465;SDS011;64049;46.290;44.240;2023-05-20T03:15:36;16.52;;;4.45;;
75465;SDS011;64049;46.290;44.240;2023-05-20T03:18:03;12.00;;;3.33;;
75465;SDS011;64049;46.290;44.240;2023-05-20T03:20:30;9.23;;;3.03;;
75465;SDS011;64049;46.290;44.240;2023-05-20T03:23:01;19.77;;;8.90;;
75465;SDS011;64049;46.290;44.240;2023-05-20T03:25:28;12.55;;;4.57;;
75465;SDS011;64049;46.290;44.240;2023-05-20T03:27:54;8.73;;;4.80;;
75465;SDS011;64049;46.290;44.240;2023-05-20T03:30:21;10.20;;;3.42;;
75465;SDS011;64049;46.290;44.240;2023-05-20T03:32:48;8.38;;;4.00;;
75465;SDS011;64049;46.290;44.240;2023-05-20T03:35:14;9.98;;;3.60;;
75465;SDS011;64049;46.290;44.240;2023-05-20T03:37:40;7.25;;;2.95;;
75465;SDS011;64049;46.290;44.240;2023-05-20T03:40:06;10.13;;;3.42;;
75465;SDS011;64049;46.290;44.240;2023-05-20T03:42:36;11.23;;;3.05;;
75465;SDS011;64049;46.290;44.240;2023-05-20T03:45:02;8.35;;;3.33;;
75465;SDS011;64049;46.290;44.240;2023-05-20T03:47:33;10.20;;;3.85;;
75465;SDS011;64049;46.290;44.240;2023-05-20T03:49:58;10.60;;;3.45;;
75465;SDS011;64049;46.290;44.240;2023-05-20T03:52:24;7.20;;;2.95;;
75465;SDS011;64049;46.290;44.240;2023-05-20T03:54:51;11.63;;;3.70;;
75465;SDS011;64049;46.290;44.240;2023-05-20T03:57:18;9.35;;;2.58;;
75465;SDS011;64049;46.290;44.240;2023-05-20T03:59:44;7.68;;;2.72;;
75465;SDS011;64049;46.290;44.240;2023-05-20T04:02:10;7.90;;;3.05;;
75465;SDS011;64049;46.290;44.240;2023-05-20T04:04:36;7.90;;;2.53;;
75465;SDS011;64049;46.290;44.240;2023-05-20T04:07:02;9.27;;;3.17;;
75465;SDS011;64049;46.290;44.240;2023-05-20T04:09:30;11.60;;;3.35;;
75465;SDS011;64049;46.290;44.240;2023-05-20T04:11:56;10.27;;;2.92;;
75465;SDS011;64049;46.290;44.240;2023-05-20T04:14:22;8.30;;;3.10;;
75465;SDS011;64049;46.290;44.240;2023-05-20T04:16:48;9.10;;;2.63;;
75465;SDS011;64049;46.290;44.240;2023-05-20T04:19:14;10.18;;;2.95;;
75465;SDS011;64049;46.290;44.240;2023-05-20T04:21:41;12.57;;;3.03;;
75465;SDS011;64049;46.290;44.240;2023-05-20T04:24:07;8.25;;;2.88;;
75465;SDS011;64049;46.290;44.240;2023-05-20T04:26:34;8.23;;;2.55;;
75465;SDS011;64049;46.290;44.240;2023-05-20T04:29:00;10.00;;;3.22;;
75465;SDS011;64049;46.290;44.240;2023-05-20T04:31:29;8.90;;;2.80;;
75465;SDS011;64049;46.290;44.240;2023-05-20T04:33:56;10.35;;;2.38;;
75465;SDS011;64049;46.290;44.240;2023-05-20T04:36:22;8.65;;;2.15;;
75465;SDS011;64049;46.290;44.240;2023-05-20T04:38:53;9.93;;;2.42;;
75465;SDS011;64049;46.290;44.240;2023-05-20T04:41:23;6.55;;;1.98;;
75465;SDS011;64049;46.290;44.240;2023-05-20T04:43:49;10.10;;;1.80;;
75465;SDS011;64049;46.290;44.240;2023-05-20T04:46:15;7.85;;;2.47;;
75465;SDS011;64049;46.290;44.240;2023-05-20T04:48:41;9.15;;;2.30;;
75465;SDS011;64049;46.290;44.240;2023-05-20T04:51:12;7.18;;;2.65;;
75465;SDS011;64049;46.290;44.240;2023-05-20T04:53:38;7.10;;;2.00;;
75465;SDS011;64049;46.290;44.240;2023-05-20T04:56:04;5.13;;;2.33;;
75465;SDS011;64049;46.290;44.240;2023-05-20T04:58:30;5.10;;;1.90;;
75465;SDS011;64049;46.290;44.240;2023-05-20T05:00:58;6.97;;;2.63;;
75465;SDS011;64049;46.290;44.240;2023-05-20T05:03:24;5.60;;;1.95;;
75465;SDS011;64049;46.290;44.240;2023-05-20T05:05:54;7.78;;;1.60;;
75465;SDS011;64049;46.290;44.240;2023-05-20T05:08:21;7.82;;;2.78;;
75465;SDS011;64049;46.290;44.240;2023-05-20T05:10:54;12.65;;;3.88;;
75465;SDS011;64049;46.290;44.240;2023-05-20T05:13:20;7.57;;;2.22;;
75465;SDS011;64049;46.290;44.240;2023-05-20T05:15:47;14.35;;;3.13;;
75465;SDS011;64049;46.290;44.240;2023-05-20T05:18:13;8.60;;;2.08;;
75465;SDS011;64049;46.290;44.240;2023-05-20T05:23:14;8.23;;;2.20;;
75465;SDS011;64049;46.290;44.240;2023-05-20T05:25:40;8.48;;;1.77;;
75465;SDS011;64049;46.290;44.240;2023-05-20T05:28:06;7.32;;;2.22;;
75465;SDS011;64049;46.290;44.240;2023-05-20T05:30:32;18.75;;;2.80;;
75465;SDS011;64049;46.290;44.240;2023-05-20T05:32:59;9.35;;;2.13;;
75465;SDS011;64049;46.290;44.240;2023-05-20T05:35:25;7.05;;;2.20;;
75465;SDS011;64049;46.290;44.240;2023-05-20T05:37:51;8.38;;;2.13;;
75465;SDS011;64049;46.290;44.240;2023-05-20T05:40:19;6.38;;;2.10;;
75465;SDS011;64049;46.290;44.240;2023-05-20T05:42:46;6.45;;;1.85;;
75465;SDS011;64049;46.290;44.240;2023-05-20T05:45:12;5.53;;;1.88;;
75465;SDS011;64049;46.290;44.240;2023-05-20T05:47:39;7.50;;;2.40;;
75465;SDS011;64049;46.290;44.240;2023-05-20T05:50:05;10.50;;;2.33;;
75465;SDS011;64049;46.290;44.240;2023-05-20T05:52:32;11.23;;;2.40;;
75465;SDS011;64049;46.290;44.240;2023-05-20T05:59:52;11.88;;;2.10;;
75465;SDS011;64049;46.290;44.240;2023-05-20T06:02:18;11.20;;;2.30;;
75465;SDS011;64049;46.290;44.240;2023-05-20T06:04:44;8.27;;;2.50;;
75465;SDS011;64049;46.290;44.240;2023-05-20T06:07:10;8.70;;;2.65;;
75465;SDS011;64049;46.290;44.240;2023-05-20T06:09:36;5.07;;;1.83;;
75465;SDS011;64049;46.290;44.240;2023-05-20T06:12:02;8.80;;;2.60;;
75465;SDS011;64049;46.290;44.240;2023-05-20T06:14:29;9.68;;;3.05;;
75465;SDS011;64049;46.290;44.240;2023-05-20T06:16:57;9.52;;;2.33;;
75465;SDS011;64049;46.290;44.240;2023-05-20T06:19:23;7.75;;;2.05;;
75465;SDS011;64049;46.290;44.240;2023-05-20T06:21:49;11.57;;;3.63;;
75465;SDS011;64049;46.290;44.240;2023-05-20T06:24:16;6.60;;;2.28;;
75465;SDS011;64049;46.290;44.240;2023-05-20T06:26:42;8.40;;;2.53;;
75465;SDS011;64049;46.290;44.240;2023-05-20T06:29:10;7.53;;;2.92;;
75465;SDS011;64049;46.290;44.240;2023-05-20T06:31:36;8.85;;;2.67;;
75465;SDS011;64049;46.290;44.240;2023-05-20T06:34:02;6.78;;;1.95;;
75465;SDS011;64049;46.290;44.240;2023-05-20T06:36:28;6.70;;;2.38;;
75465;SDS011;64049;46.290;44.240;2023-05-20T06:38:55;5.70;;;2.50;;
75465;SDS011;64049;46.290;44.240;2023-05-20T06:41:21;6.68;;;1.95;;
75465;SDS011;64049;46.290;44.240;2023-05-20T06:43:50;5.38;;;2.30;;
75465;SDS011;64049;46.290;44.240;2023-05-20T06:46:33;15.00;;;3.08;;
75465;SDS011;64049;46.290;44.240;2023-05-20T06:49:03;9.27;;;3.22;;
75465;SDS011;64049;46.290;44.240;2023-05-20T06:51:30;8.68;;;2.03;;
75465;SDS011;64049;46.290;44.240;2023-05-20T06:53:56;10.52;;;2.28;;
75465;SDS011;64049;46.290;44.240;2023-05-20T06:56:22;6.88;;;1.92;;
75465;SDS011;64049;46.290;44.240;2023-05-20T06:58:48;6.80;;;1.85;;
75465;SDS011;64049;46.290;44.240;2023-05-20T07:01:14;6.80;;;2.15;;
75465;SDS011;64049;46.290;44.240;2023-05-20T07:03:40;7.90;;;1.88;;
75465;SDS011;64049;46.290;44.240;2023-05-20T07:06:09;13.35;;;2.33;;
75465;SDS011;64049;46.290;44.240;2023-05-20T07:08:35;8.82;;;2.53;;
75465;SDS011;64049;46.290;44.240;2023-05-20T07:11:01;8.00;;;2.15;;
75465;SDS011;64049;46.290;44.240;2023-05-20T07:13:29;7.55;;;1.80;;
75465;SDS011;64049;46.290;44.240;2023-05-20T07:15:56;5.32;;;2.35;;
75465;SDS011;64049;46.290;44.240;2023-05-20T07:18:22;4.88;;;1.80;;
75465;SDS011;64049;46.290;44.240;2023-05-20T07:20:52;8.00;;;2.05;;
75465;SDS011;64049;46.290;44.240;2023-05-20T07:23:38;10.05;;;2.22;;
75465;SDS011;64049;46.290;44.240;2023-05-20T07:26:04;6.25;;;2.13;;
75465;SDS011;64049;46.290;44.240;2023-05-20T07:28:30;7.20;;;2.08;;
75465;SDS011;64049;46.290;44.240;2023-05-20T07:30:56;16.95;;;2.63;;
75465;SDS011;64049;46.290;44.240;2023-05-20T07:33:28;7.35;;;2.55;;
75465;SDS011;64049;46.290;44.240;2023-05-20T07:35:54;13.02;;;2.50;;
75465;SDS011;64049;46.290;44.240;2023-05-20T07:38:21;12.90;;;2.58;;
75465;SDS011;64049;46.290;44.240;2023-05-20T07:40:54;9.15;;;2.25;;
75465;SDS011;64049;46.290;44.240;2023-05-20T07:43:20;5.43;;;1.95;;
75465;SDS011;64049;46.290;44.240;2023-05-20T07:45:46;8.63;;;2.40;;
75465;SDS011;64049;46.290;44.240;2023-05-20T07:48:12;6.57;;;1.92;;
75465;SDS011;64049;46.290;44.240;2023-05-20T07:50:39;10.15;;;2.75;;
75465;SDS011;64049;46.290;44.240;2023-05-20T07:53:05;5.05;;;1.77;;
75465;SDS011;64049;46.290;44.240;2023-05-20T07:55:33;6.30;;;2.03;;
75465;SDS011;64049;46.290;44.240;2023-05-20T07:58:00;8.65;;;2.10;;
75465;SDS011;64049;46.290;44.240;2023-05-20T08:00:26;11.98;;;2.60;;
75465;SDS011;64049;46.290;44.240;2023-05-20T08:02:52;7.30;;;2.30;;
75465;SDS011;64049;46.290;44.240;2023-05-20T08:05:26;6.78;;;1.92;;
75465;SDS011;64049;46.290;44.240;2023-05-20T08:07:52;6.60;;;2.42;;
75465;SDS011;64049;46.290;44.240;2023-05-20T08:10:21;9.63;;;3.13;;
75465;SDS011;64049;46.290;44.240;2023-05-20T08:12:47;7.50;;;2.22;;
75465;SDS011;64049;46.290;44.240;2023-05-20T08:15:13;6.95;;;2.08;;
75465;SDS011;64049;46.290;44.240;2023-05-20T08:17:39;11.95;;;2.50;;
75465;SDS011;64049;46.290;44.240;2023-05-20T08:20:06;7.82;;;2.15;;
75465;SDS011;64049;46.290;44.240;2023-05-20T08:22:37;8.02;;;2.40;;
75465;SDS011;64049;46.290;44.240;2023-05-20T08:25:05;5.53;;;1.50;;
75465;SDS011;64049;46.290;44.240;2023-05-20T08:27:32;8.07;;;2.08;;
75465;SDS011;64049;46.290;44.240;2023-05-20T08:29:59;8.93;;;2.60;;
75465;SDS011;64049;46.290;44.240;2023-05-20T08:32:25;7.47;;;2.00;;
75465;SDS011;64049;46.290;44.240;2023-05-20T08:34:51;5.40;;;2.10;;
75465;SDS011;64049;46.290;44.240;2023-05-20T08:37:17;8.50;;;1.80;;
75465;SDS011;64049;46.290;44.240;2023-05-20T08:39:43;6.18;;;2.30;;
75465;SDS011;64049;46.290;44.240;2023-05-20T08:42:11;5.38;;;1.75;;
75465;SDS011;64049;46.290;44.240;2023-05-20T08:44:38;8.93;;;2.40;;
75465;SDS011;64049;46.290;44.240;2023-05-20T08:47:06;8.25;;;2.00;;
75465;SDS011;64049;46.290;44.240;2023-05-20T08:49:33;38.70;;;5.57;;
75465;SDS011;64049;46.290;44.240;2023-05-20T08:51:59;7.88;;;2.63;;
75465;SDS011;64049;46.290;44.240;2023-05-20T08:54:27;10.75;;;1.98;;
75465;SDS011;64049;46.290;44.240;2023-05-20T08:57:09;6.18;;;2.35;;
75465;SDS011;64049;46.290;44.240;2023-05-20T08:59:44;5.38;;;2.08;;
75465;SDS011;64049;46.290;44.240;2023-05-20T09:02:13;8.70;;;2.30;;
75465;SDS011;64049;46.290;44.240;2023-05-20T09:04:39;7.22;;;2.42;;
75465;SDS011;64049;46.290;44.240;2023-05-20T09:07:06;7.78;;;2.45;;
75465;SDS011;64049;46.290;44.240;2023-05-20T09:09:32;9.13;;;2.50;;
75465;SDS011;64049;46.290;44.240;2023-05-20T09:12:00;8.93;;;2.60;;
75465;SDS011;64049;46.290;44.240;2023-05-20T09:14:30;7.53;;;2.40;;
75465;SDS011;64049;46.290;44.240;2023-05-20T09:16:56;12.25;;;2.45;;
75465;SDS011;64049;46.290;44.240;2023-05-20T09:19:22;13.18;;;2.40;;
75465;SDS011;64049;46.290;44.240;2023-05-20T09:21:51;15.55;;;2.30;;
75465;SDS011;64049;46.290;44.240;2023-05-20T09:24:22;7.35;;;2.22;;
75465;SDS011;64049;46.290;44.240;2023-05-20T09:26:49;10.73;;;2.20;;
75465;SDS011;64049;46.290;44.240;2023-05-20T09:29:15;8.15;;;1.85;;
75465;SDS011;64049;46.290;44.240;2023-05-20T09:31:42;4.80;;;1.80;;
75465;SDS011;64049;46.290;44.240;2023-05-20T09:34:08;10.98;;;1.98;;
75465;SDS011;64049;46.290;44.240;2023-05-20T09:36:34;6.45;;;1.80;;
75465;SDS011;64049;46.290;44.240;2023-05-20T09:39:02;7.68;;;1.67;;
75465;SDS011;64049;46.290;44.240;2023-05-20T09:41:32;9.32;;;2.17;;
75465;SDS011;64049;46.290;44.240;2023-05-20T09:44:02;9.50;;;2.45;;
75465;SDS011;64049;46.290;44.240;2023-05-20T09:46:31;5.53;;;1.60;;
75465;SDS011;64049;46.290;44.240;2023-05-20T09:48:58;7.75;;;1.70;;
75465;SDS011;64049;46.290;44.240;2023-05-20T09:51:25;10.25;;;2.10;;
75465;SDS011;64049;46.290;44.240;2023-05-20T09:53:53;9.57;;;1.90;;
75465;SDS011;64049;46.290;44.240;2023-05-20T09:56:21;6.47;;;1.67;;
75465;SDS011;64049;46.290;44.240;2023-05-20T09:58:49;6.13;;;1.90;;
75465;SDS011;64049;46.290;44.240;2023-05-20T10:01:22;5.05;;;1.50;;
75465;SDS011;64049;46.290;44.240;2023-05-20T10:03:49;6.32;;;1.83;;
75465;SDS011;64049;46.290;44.240;2023-05-20T10:09:22;4.28;;;1.50;;
75465;SDS011;64049;46.290;44.240;2023-05-20T10:14:55;6.95;;;1.60;;
75465;SDS011;64049;46.290;44.240;2023-05-20T10:20:16;4.88;;;2.08;;
75465;SDS011;64049;46.290;44.240;2023-05-20T10:22:42;4.47;;;1.20;;
75465;SDS011;64049;46.290;44.240;2023-05-20T10:25:11;5.82;;;1.73;;
75465;SDS011;64049;46.290;44.240;2023-05-20T10:27:49;11.80;;;2.10;;
75465;SDS011;64049;46.290;44.240;2023-05-20T10:30:16;4.25;;;1.58;;
75465;SDS011;64049;46.290;44.240;2023-05-20T10:32:52;4.13;;;1.38;;
75465;SDS011;64049;46.290;44.240;2023-05-20T10:35:24;7.00;;;1.73;;
75465;SDS011;64049;46.290;44.240;2023-05-20T10:37:51;9.05;;;2.85;;
75465;SDS011;64049;46.290;44.240;2023-05-20T10:40:33;7.78;;;1.88;;
75465;SDS011;64049;46.290;44.240;2023-05-20T10:43:07;5.10;;;1.40;;
75465;SDS011;64049;46.290;44.240;2023-05-20T10:45:51;7.20;;;1.38;;
75465;SDS011;64049;46.290;44.240;2023-05-20T10:53:52;4.65;;;1.40;;
75465;SDS011;64049;46.290;44.240;2023-05-20T10:56:23;9.02;;;1.70;;
75465;SDS011;64049;46.290;44.240;2023-05-20T10:58:51;7.13;;;1.63;;
75465;SDS011;64049;46.290;44.240;2023-05-20T11:01:25;7.38;;;1.60;;
75465;SDS011;64049;46.290;44.240;2023-05-20T11:03:53;6.70;;;1.48;;
75465;SDS011;64049;46.290;44.240;2023-05-20T11:06:24;6.18;;;1.38;;
75465;SDS011;64049;46.290;44.240;2023-05-20T11:08:53;4.70;;;1.42;;
75465;SDS011;64049;46.290;44.240;2023-05-20T11:11:34;7.07;;;1.17;;
75465;SDS011;64049;46.290;44.240;2023-05-20T11:14:02;4.40;;;1.33;;
75465;SDS011;64049;46.290;44.240;2023-05-20T11:16:31;8.90;;;1.55;;
75465;SDS011;64049;46.290;44.240;2023-05-20T11:19:00;11.52;;;2.03;;
75465;SDS011;64049;46.290;44.240;2023-05-20T11:25:14;4.10;;;1.20;;
75465;SDS011;64049;46.290;44.240;2023-05-20T11:27:41;8.15;;;1.80;;
75465;SDS011;64049;46.290;44.240;2023-05-20T11:32:36;10.32;;;1.42;;
75465;SDS011;64049;46.290;44.240;2023-05-20T11:37:29;5.43;;;1.20;;
75465;SDS011;64049;46.290;44.240;2023-05-20T11:40:04;5.15;;;1.20;;
75465;SDS011;64049;46.290;44.240;2023-05-20T11:42:35;5.07;;;1.13;;
75465;SDS011;64049;46.290;44.240;2023-05-20T11:45:01;6.90;;;1.27;;
75465;SDS011;64049;46.290;44.240;2023-05-20T11:47:28;4.93;;;1.60;;
75465;SDS011;64049;46.290;44.240;2023-05-20T11:49:56;11.18;;;1.48;;
75465;SDS011;64049;46.290;44.240;2023-05-20T11:52:22;8.00;;;1.75;;
75465;SDS011;64049;46.290;44.240;2023-05-20T11:54:57;6.43;;;1.40;;
75465;SDS011;64049;46.290;44.240;2023-05-20T11:57:22;8.68;;;1.75;;
75465;SDS011;64049;46.290;44.240;2023-05-20T11:59:49;6.63;;;1.50;;
75465;SDS011;64049;46.290;44.240;2023-05-20T12:02:15;6.85;;;1.17;;
75465;SDS011;64049;46.290;44.240;2023-05-20T12:04:41;10.13;;;1.48;;
75465;SDS011;64049;46.290;44.240;2023-05-20T12:07:07;9.55;;;2.10;;
75465;SDS011;64049;46.290;44.240;2023-05-20T12:12:00;12.45;;;1.60;;
75465;SDS011;64049;46.290;44.240;2023-05-20T12:14:26;8.38;;;1.38;;
75465;SDS011;64049;46.290;44.240;2023-05-20T12:16:52;4.70;;;1.40;;
75465;SDS011;64049;46.290;44.240;2023-05-20T12:19:18;4.03;;;1.17;;
75465;SDS011;64049;46.290;44.240;2023-05-20T12:21:47;8.45;;;1.60;;
75465;SDS011;64049;46.290;44.240;2023-05-20T12:24:13;5.90;;;1.30;;
75465;SDS011;64049;46.290;44.240;2023-05-20T12:26:39;7.55;;;1.27;;
75465;SDS011;64049;46.290;44.240;2023-05-20T12:29:05;8.52;;;1.60;;
75465;SDS011;64049;46.290;44.240;2023-05-20T12:31:31;6.25;;;1.20;;
75465;SDS011;64049;46.290;44.240;2023-05-20T12:33:57;7.57;;;1.42;;
75465;SDS011;64049;46.290;44.240;2023-05-20T12:36:23;6.15;;;1.30;;
75465;SDS011;64049;46.290;44.240;2023-05-20T12:38:49;6.47;;;1.67;;
75465;SDS011;64049;46.290;44.240;2023-05-20T12:41:15;7.28;;;1.52;;
75465;SDS011;64049;46.290;44.240;2023-05-20T12:43:41;5.40;;;1.70;;
75465;SDS011;64049;46.290;44.240;2023-05-20T12:46:07;5.75;;;1.38;;
75465;SDS011;64049;46.290;44.240;2023-05-20T12:48:33;5.55;;;1.35;;
75465;SDS011;64049;46.290;44.240;2023-05-20T12:50:59;9.40;;;1.63;;
75465;SDS011;64049;46.290;44.240;2023-05-20T12:53:25;4.95;;;1.38;;
75465;SDS011;64049;46.290;44.240;2023-05-20T12:55:51;7.47;;;1.70;;
75465;SDS011;64049;46.290;44.240;2023-05-20T12:58:16;9.20;;;1.50;;
75465;SDS011;64049;46.290;44.240;2023-05-20T13:00:42;5.80;;;1.20;;
75465;SDS011;64049;46.290;44.240;2023-05-20T13:03:08;7.35;;;1.30;;
75465;SDS011;64049;46.290;44.240;2023-05-20T13:05:34;6.95;;;1.50;;
75465;SDS011;64049;46.290;44.240;2023-05-20T13:08:00;7.43;;;1.30;;
75465;SDS011;64049;46.290;44.240;2023-05-20T13:10:26;8.95;;;1.70;;
75465;SDS011;64049;46.290;44.240;2023-05-20T13:12:52;12.63;;;2.22;;
75465;SDS011;64049;46.290;44.240;2023-05-20T13:15:18;9.20;;;1.30;;
75465;SDS011;64049;46.290;44.240;2023-05-20T13:17:44;6.18;;;1.20;;
75465;SDS011;64049;46.290;44.240;2023-05-20T13:20:11;6.97;;;1.52;;
75465;SDS011;64049;46.290;44.240;2023-05-20T13:22:37;6.13;;;1.58;;
75465;SDS011;64049;46.290;44.240;2023-05-20T13:25:03;9.45;;;1.88;;
75465;SDS011;64049;46.290;44.240;2023-05-20T13:27:30;5.93;;;1.23;;
75465;SDS011;64049;46.290;44.240;2023-05-20T13:29:56;7.60;;;1.70;;
75465;SDS011;64049;46.290;44.240;2023-05-20T13:32:22;12.07;;;1.80;;
75465;SDS011;64049;46.290;44.240;2023-05-20T13:34:48;4.57;;;1.10;;
75465;SDS011;64049;46.290;44.240;2023-05-20T13:37:14;7.20;;;1.30;;
75465;SDS011;64049;46.290;44.240;2023-05-20T13:39:40;12.82;;;1.80;;
75465;SDS011;64049;46.290;44.240;2023-05-20T13:42:06;8.55;;;1.60;;
75465;SDS011;64049;46.290;44.240;2023-05-20T13:44:32;9.45;;;2.05;;
75465;SDS011;64049;46.290;44.240;2023-05-20T13:46:57;5.95;;;1.55;;
75465;SDS011;64049;46.290;44.240;2023-05-20T13:49:23;7.05;;;1.23;;
75465;SDS011;64049;46.290;44.240;2023-05-20T13:51:49;6.03;;;1.30;;
75465;SDS011;64049;46.290;44.240;2023-05-20T13:54:16;8.52;;;1.85;;
75465;SDS011;64049;46.290;44.240;2023-05-20T13:56:41;4.53;;;1.35;;
75465;SDS011;64049;46.290;44.240;2023-05-20T13:59:08;6.13;;;1.40;;
75465;SDS011;64049;46.290;44.240;2023-05-20T14:01:34;5.85;;;1.05;;
75465;SDS011;64049;46.290;44.240;2023-05-20T14:04:00;7.03;;;1.40;;
75465;SDS011;64049;46.290;44.240;2023-05-20T14:06:26;9.18;;;1.50;;
75465;SDS011;64049;46.290;44.240;2023-05-20T14:08:54;11.50;;;1.80;;
75465;SDS011;64049;46.290;44.240;2023-05-20T14:11:21;10.35;;;2.22;;
75465;SDS011;64049;46.290;44.240;2023-05-20T14:13:47;6.25;;;1.73;;
75465;SDS011;64049;46.290;44.240;2023-05-20T14:16:13;6.70;;;1.50;;
75465;SDS011;64049;46.290;44.240;2023-05-20T14:18:38;7.03;;;1.88;;
75465;SDS011;64049;46.290;44.240;2023-05-20T14:21:05;7.28;;;1.73;;
75465;SDS011;64049;46.290;44.240;2023-05-20T14:23:31;6.18;;;1.38;;
75465;SDS011;64049;46.290;44.240;2023-05-20T14:25:57;8.38;;;1.45;;
75465;SDS011;64049;46.290;44.240;2023-05-20T14:28:23;5.55;;;1.58;;
75465;SDS011;64049;46.290;44.240;2023-05-20T14:30:49;6.85;;;1.58;;
75465;SDS011;64049;46.290;44.240;2023-05-20T14:33:15;7.78;;;1.77;;
75465;SDS011;64049;46.290;44.240;2023-05-20T14:35:41;12.05;;;1.75;;
75465;SDS011;64049;46.290;44.240;2023-05-20T14:38:07;9.18;;;1.83;;
75465;SDS011;64049;46.290;44.240;2023-05-20T14:40:33;10.82;;;1.95;;
75465;SDS011;64049;46.290;44.240;2023-05-20T14:42:58;7.47;;;1.77;;
75465;SDS011;64049;46.290;44.240;2023-05-20T14:45:24;14.85;;;2.38;;
75465;SDS011;64049;46.290;44.240;2023-05-20T14:47:50;9.10;;;2.03;;
75465;SDS011;64049;46.290;44.240;2023-05-20T14:50:16;6.25;;;1.90;;
75465;SDS011;64049;46.290;44.240;2023-05-20T14:52:42;9.05;;;1.58;;
75465;SDS011;64049;46.290;44.240;2023-05-20T14:55:08;6.88;;;1.75;;
75465;SDS011;64049;46.290;44.240;2023-05-20T14:57:34;8.15;;;2.35;;
75465;SDS011;64049;46.290;44.240;2023-05-20T15:00:00;9.43;;;1.88;;
75465;SDS011;64049;46.290;44.240;2023-05-20T15:02:26;10.80;;;2.17;;
75465;SDS011;64049;46.290;44.240;2023-05-20T15:04:52;8.25;;;2.22;;
75465;SDS011;64049;46.290;44.240;2023-05-20T15:07:18;10.25;;;1.98;;
75465;SDS011;64049;46.290;44.240;2023-05-20T15:09:44;7.82;;;1.80;;